createdAt,value
2023-02-20T00:01:56.152Z,6.50
2023-02-20T00:04:25.848Z,6.20
2023-02-20T00:06:56.629Z,5.60
2023-02-20T00:09:25.605Z,5.30
2023-02-20T00:11:54.597Z,5.25
2023-02-20T00:14:24.319Z,4.80
2023-02-20T00:16:53.330Z,5.50
2023-02-20T00:19:22.368Z,5.15
2023-02-20T00:21:53.867Z,4.85
2023-02-20T00:24:24.571Z,5.63
2023-02-20T00:26:54.604Z,4.50
2023-02-20T00:29:25.625Z,4.55
2023-02-20T00:31:56.030Z,3.67
2023-02-20T00:34:26.318Z,3.38
2023-02-20T00:36:55.875Z,3.35
2023-02-20T00:39:26.591Z,3.42
2023-02-20T00:41:57.235Z,3.00
2023-02-20T00:44:26.308Z,3.00
2023-02-20T00:46:55.317Z,2.60
2023-02-20T00:49:24.337Z,2.60
2023-02-20T00:51:53.331Z,2.50
2023-02-20T00:54:22.354Z,2.55
2023-02-20T00:56:53.000Z,2.78
2023-02-20T00:59:22.003Z,2.80
2023-02-20T01:01:50.990Z,2.50
2023-02-20T01:04:20.851Z,2.63
2023-02-20T01:06:49.943Z,2.60
2023-02-20T01:09:19.198Z,5.18
2023-02-20T01:11:48.265Z,2.67
2023-02-20T01:14:18.982Z,2.60
2023-02-20T01:16:49.266Z,2.38
2023-02-20T01:19:18.870Z,2.20
2023-02-20T01:21:49.510Z,2.20
2023-02-20T01:24:19.253Z,2.10
2023-02-20T01:26:50.286Z,2.22
2023-02-20T01:29:20.967Z,2.30
2023-02-20T01:31:50.868Z,2.25
2023-02-20T01:34:21.541Z,2.40
2023-02-20T01:36:51.246Z,2.40
2023-02-20T01:39:21.769Z,2.60
2023-02-20T01:41:53.821Z,2.20
2023-02-20T01:44:27.577Z,2.40
2023-02-20T01:46:57.548Z,2.25
2023-02-20T01:49:33.688Z,2.50
2023-02-20T01:54:39.768Z,2.40
2023-02-20T01:57:14.708Z,2.45
2023-02-20T01:59:47.490Z,2.50
2023-02-20T02:02:17.139Z,2.70
2023-02-20T02:04:48.772Z,2.70
2023-02-20T02:07:18.289Z,2.53
2023-02-20T02:09:54.017Z,2.50
2023-02-20T02:12:23.645Z,2.80
2023-02-20T02:14:54.356Z,2.40
2023-02-20T02:17:52.727Z,2.40
2023-02-20T02:20:55.637Z,2.50
2023-02-20T02:24:07.084Z,2.47
2023-02-20T02:27:08.315Z,2.80
2023-02-20T02:30:03.994Z,2.42
2023-02-20T02:32:55.360Z,2.70
2023-02-20T02:35:44.868Z,2.70
2023-02-20T02:38:22.445Z,2.55
2023-02-20T02:41:01.441Z,2.72
2023-02-20T02:43:36.956Z,2.50
2023-02-20T02:46:10.935Z,2.63
2023-02-20T02:48:48.385Z,2.92
2023-02-20T02:51:20.479Z,2.53
2023-02-20T02:54:09.884Z,3.40
2023-02-20T02:56:39.825Z,2.70
2023-02-20T02:59:10.919Z,2.80
2023-02-20T03:01:44.140Z,3.40
2023-02-20T03:04:15.122Z,2.95
2023-02-20T03:06:48.050Z,2.90
2023-02-20T03:09:26.484Z,3.05
2023-02-20T03:11:57.992Z,3.50
2023-02-20T03:14:51.155Z,2.90
2023-02-20T03:17:29.305Z,3.03
2023-02-20T03:20:04.932Z,3.15
2023-02-20T03:22:38.185Z,3.30
2023-02-20T03:25:14.368Z,2.80
2023-02-20T03:27:49.065Z,3.60
2023-02-20T03:30:24.190Z,3.60
2023-02-20T03:33:17.628Z,3.20
2023-02-20T03:36:07.582Z,3.35
2023-02-20T03:39:00.110Z,3.58
2023-02-20T03:41:52.756Z,3.15
2023-02-20T03:44:23.844Z,3.38
2023-02-20T03:46:56.802Z,3.05
2023-02-20T03:49:32.652Z,3.40
2023-02-20T03:52:01.842Z,2.97
2023-02-20T03:54:32.187Z,4.97
2023-02-20T03:57:06.721Z,5.10
2023-02-20T03:59:42.504Z,4.35
2023-02-20T04:02:16.687Z,5.50
2023-02-20T04:04:49.633Z,4.35
2023-02-20T04:07:25.705Z,3.80
2023-02-20T04:09:57.227Z,4.22
2023-02-20T04:12:31.414Z,3.78
2023-02-20T04:15:02.154Z,4.68
2023-02-20T04:17:33.863Z,5.50
2023-02-20T04:20:03.346Z,5.20
2023-02-20T04:22:37.079Z,4.97
2023-02-20T04:25:14.450Z,4.60
2023-02-20T04:27:45.584Z,4.65
2023-02-20T04:30:15.211Z,5.40
2023-02-20T04:32:45.875Z,5.45
2023-02-20T04:35:19.506Z,6.82
2023-02-20T04:37:48.576Z,6.60
2023-02-20T04:40:19.593Z,7.18
2023-02-20T04:42:50.251Z,6.07
2023-02-20T04:45:19.263Z,6.50
2023-02-20T04:47:48.414Z,5.50
2023-02-20T04:50:23.073Z,4.80
2023-02-20T04:52:52.052Z,4.97
2023-02-20T04:55:23.825Z,4.75
2023-02-20T04:57:56.777Z,4.55
2023-02-20T05:00:27.298Z,4.18
2023-02-20T05:02:56.548Z,4.43
2023-02-20T05:05:27.317Z,4.65
2023-02-20T05:07:57.678Z,4.90
2023-02-20T05:10:27.882Z,4.35
2023-02-20T05:12:59.458Z,4.55
2023-02-20T05:15:29.522Z,4.45
2023-02-20T05:17:58.563Z,4.78
2023-02-20T05:20:47.372Z,5.32
2023-02-20T05:23:16.360Z,5.80
2023-02-20T05:25:45.346Z,4.93
2023-02-20T05:28:16.145Z,6.13
2023-02-20T05:30:45.225Z,6.85
2023-02-20T05:33:14.266Z,8.05
2023-02-20T05:35:43.554Z,6.97
2023-02-20T05:38:18.603Z,6.97
2023-02-20T05:40:48.053Z,7.30
2023-02-20T05:43:20.054Z,7.47
2023-02-20T05:45:49.040Z,6.80
2023-02-20T05:48:18.034Z,7.55
2023-02-20T05:50:47.036Z,7.55
2023-02-20T05:53:15.992Z,7.32
2023-02-20T05:55:45.017Z,6.57
2023-02-20T05:58:13.970Z,6.75
2023-02-20T06:00:44.606Z,7.03
2023-02-20T06:03:15.373Z,7.05
2023-02-20T06:05:44.540Z,6.72
2023-02-20T06:08:13.540Z,6.43
2023-02-20T06:10:42.563Z,6.30
2023-02-20T06:13:11.557Z,6.00
2023-02-20T06:15:40.645Z,6.00
2023-02-20T06:18:11.226Z,6.88
2023-02-20T06:20:40.158Z,6.38
2023-02-20T06:23:09.157Z,5.85
2023-02-20T06:25:38.237Z,6.18
2023-02-20T06:28:07.312Z,5.72
2023-02-20T06:30:36.390Z,6.28
2023-02-20T06:33:05.654Z,6.40
2023-02-20T06:35:36.398Z,6.57
2023-02-20T06:38:05.365Z,5.35
2023-02-20T06:40:34.454Z,5.40
2023-02-20T06:43:03.532Z,6.13
2023-02-20T06:45:32.523Z,5.47
2023-02-20T06:48:01.462Z,6.05
2023-02-20T06:50:30.526Z,5.85
2023-02-20T06:53:01.346Z,5.65
2023-02-20T06:55:30.320Z,5.93
2023-02-20T06:57:59.370Z,5.50
2023-02-20T07:00:28.583Z,6.82
2023-02-20T07:02:57.569Z,6.13
2023-02-20T07:05:26.573Z,5.90
2023-02-20T07:07:55.519Z,5.07
2023-02-20T07:10:28.047Z,6.00
2023-02-20T07:12:57.055Z,6.13
2023-02-20T07:15:26.031Z,5.70
2023-02-20T07:17:55.027Z,5.70
2023-02-20T07:20:24.036Z,5.85
2023-02-20T07:22:54.843Z,5.72
2023-02-20T07:25:25.740Z,5.85
2023-02-20T07:27:54.773Z,5.25
2023-02-20T07:30:26.119Z,5.65
2023-02-20T07:32:55.151Z,5.78
2023-02-20T07:35:24.108Z,5.90
2023-02-20T07:37:53.126Z,6.03
2023-02-20T07:40:23.045Z,5.68
2023-02-20T07:42:53.738Z,5.68
2023-02-20T07:45:23.148Z,5.88
2023-02-20T07:47:52.431Z,5.75
2023-02-20T07:50:21.690Z,6.15
2023-02-20T07:52:50.607Z,5.75
2023-02-20T07:55:19.860Z,5.72
2023-02-20T07:57:51.131Z,5.40
2023-02-20T08:00:23.210Z,6.05
2023-02-20T08:02:52.229Z,5.40
2023-02-20T08:05:21.310Z,5.68
2023-02-20T08:07:51.307Z,4.97
2023-02-20T08:10:21.774Z,5.45
2023-02-20T08:12:51.349Z,5.07
2023-02-20T08:15:23.712Z,4.82
2023-02-20T08:17:52.808Z,5.20
2023-02-20T08:20:22.780Z,5.10
2023-02-20T08:22:52.389Z,5.43
2023-02-20T08:25:21.380Z,5.38
2023-02-20T08:27:51.072Z,4.72
2023-02-20T08:30:25.652Z,5.00
2023-02-20T08:32:55.391Z,5.30
2023-02-20T08:35:25.714Z,4.60
2023-02-20T08:37:54.701Z,4.70
2023-02-20T08:40:23.831Z,5.30
2023-02-20T08:42:53.152Z,4.20
2023-02-20T08:45:24.569Z,4.78
2023-02-20T08:47:57.688Z,4.80
2023-02-20T08:50:26.672Z,4.80
2023-02-20T08:52:55.652Z,4.82
2023-02-20T08:55:24.673Z,4.78
2023-02-20T08:57:53.927Z,4.47
2023-02-20T09:00:24.876Z,3.88
2023-02-20T09:02:54.008Z,4.50
2023-02-20T09:05:23.472Z,4.18
2023-02-20T09:07:52.524Z,4.00
2023-02-20T09:10:21.687Z,3.88
2023-02-20T09:12:50.775Z,4.22
2023-02-20T09:15:19.939Z,3.70
2023-02-20T09:17:52.395Z,4.50
2023-02-20T09:20:23.043Z,4.65
2023-02-20T09:22:52.703Z,4.47
2023-02-20T09:25:21.792Z,4.57
2023-02-20T09:27:51.434Z,4.78
2023-02-20T09:30:22.003Z,4.00
2023-02-20T09:32:53.268Z,4.00
2023-02-20T09:35:25.101Z,4.30
2023-02-20T09:37:54.242Z,4.97
2023-02-20T09:40:24.934Z,4.50
2023-02-20T09:43:16.285Z,4.70
2023-02-20T09:45:52.358Z,4.38
2023-02-20T09:48:40.824Z,4.18
2023-02-20T09:51:15.208Z,3.80
2023-02-20T09:53:54.371Z,3.92
2023-02-20T09:56:27.684Z,3.78
2023-02-20T09:59:03.495Z,3.58
2023-02-20T10:01:35.047Z,3.70
2023-02-20T10:04:11.959Z,3.70
2023-02-20T10:06:41.092Z,3.13
2023-02-20T10:09:14.414Z,3.42
2023-02-20T10:12:06.030Z,3.33
2023-02-20T10:14:55.084Z,3.35
2023-02-20T10:17:34.890Z,3.30
2023-02-20T10:20:12.947Z,3.47
2023-02-20T10:22:50.571Z,3.30
2023-02-20T10:25:24.614Z,2.90
2023-02-20T10:28:01.589Z,3.05
2023-02-20T10:30:34.196Z,3.03
2023-02-20T10:33:18.248Z,3.35
2023-02-20T10:35:54.674Z,3.50
2023-02-20T10:41:03.923Z,3.83
2023-02-20T10:43:39.464Z,3.55
2023-02-20T10:46:15.878Z,3.00
2023-02-20T10:48:46.248Z,3.08
2023-02-20T10:51:24.127Z,2.80
2023-02-20T10:53:59.388Z,2.85
2023-02-20T10:56:36.156Z,2.90
2023-02-20T10:59:09.777Z,3.20
2023-02-20T11:01:41.122Z,3.08
2023-02-20T11:04:16.033Z,3.05
2023-02-20T11:06:51.461Z,3.10
2023-02-20T11:09:20.897Z,3.10
2023-02-20T11:11:50.137Z,3.30
2023-02-20T11:14:34.135Z,3.88
2023-02-20T11:17:13.420Z,3.60
2023-02-20T11:19:46.686Z,3.45
2023-02-20T11:22:20.269Z,3.50
2023-02-20T11:24:49.310Z,3.80
2023-02-20T11:27:20.587Z,3.10
2023-02-20T11:29:54.742Z,3.25
2023-02-20T11:32:41.991Z,3.30
2023-02-20T11:35:30.917Z,3.17
2023-02-20T11:38:28.614Z,3.08
2023-02-20T11:41:08.725Z,3.03
2023-02-20T11:43:43.535Z,3.30
2023-02-20T11:46:17.642Z,3.20
2023-02-20T11:49:06.250Z,3.13
2023-02-20T11:51:38.278Z,3.22
2023-02-20T11:54:18.953Z,3.20
2023-02-20T11:57:02.347Z,3.05
2023-02-20T11:59:39.547Z,3.08
2023-02-20T12:02:23.648Z,3.15
2023-02-20T12:05:09.452Z,3.40
2023-02-20T12:07:41.407Z,3.70
2023-02-20T12:10:36.709Z,3.33
2023-02-20T12:13:07.564Z,3.35
2023-02-20T12:15:36.548Z,3.10
2023-02-20T12:18:41.848Z,3.75
2023-02-20T12:21:23.104Z,3.38
2023-02-20T12:24:06.623Z,3.20
2023-02-20T12:26:47.748Z,3.53
2023-02-20T12:29:29.233Z,3.45
2023-02-20T12:32:12.123Z,3.30
2023-02-20T12:35:06.200Z,3.22
2023-02-20T12:37:47.790Z,3.33
2023-02-20T12:40:39.618Z,3.67
2023-02-20T12:43:20.792Z,3.67
2023-02-20T12:45:58.435Z,3.30
2023-02-20T12:48:41.448Z,3.25
2023-02-20T12:51:19.300Z,3.53
2023-02-20T12:54:05.336Z,3.60
2023-02-20T12:56:48.115Z,3.37
2023-02-20T12:59:29.196Z,3.60
2023-02-20T13:02:05.945Z,3.67
2023-02-20T13:04:42.087Z,3.42
2023-02-20T13:07:19.512Z,3.22
2023-02-20T13:10:00.892Z,3.50
2023-02-20T13:12:30.908Z,3.17
2023-02-20T13:15:23.634Z,3.25
2023-02-20T13:17:59.559Z,3.30
2023-02-20T13:20:31.565Z,3.40
2023-02-20T13:23:02.104Z,3.35
2023-02-20T13:25:42.643Z,3.33
2023-02-20T13:28:32.703Z,3.72
2023-02-20T13:31:15.592Z,3.35
2023-02-20T13:33:48.153Z,3.20
2023-02-20T13:36:40.329Z,3.20
2023-02-20T13:39:27.976Z,3.88
2023-02-20T13:42:03.299Z,4.20
2023-02-20T13:44:42.940Z,4.05
2023-02-20T13:47:38.991Z,3.58
2023-02-20T13:50:34.989Z,3.60
2023-02-20T13:53:07.444Z,3.22
2023-02-20T13:55:36.539Z,3.30
2023-02-20T13:58:13.484Z,4.55
2023-02-20T14:00:52.906Z,4.00
2023-02-20T14:03:25.817Z,3.45
2023-02-20T14:06:09.664Z,3.40
2023-02-20T14:08:41.451Z,3.08
2023-02-20T14:11:12.566Z,3.15
2023-02-20T14:13:45.115Z,3.05
2023-02-20T14:16:30.949Z,3.55
2023-02-20T14:19:04.081Z,3.00
2023-02-20T14:21:36.131Z,3.30
2023-02-20T14:24:19.218Z,3.30
2023-02-20T14:26:49.333Z,3.50
2023-02-20T14:29:23.794Z,3.25
2023-02-20T14:31:53.815Z,3.13
2023-02-20T14:34:31.957Z,3.33
2023-02-20T14:37:13.193Z,4.18
2023-02-20T14:39:55.346Z,3.25
2023-02-20T14:42:26.228Z,3.70
2023-02-20T14:45:01.757Z,3.90
2023-02-20T14:47:31.670Z,3.20
2023-02-20T14:50:17.754Z,3.40
2023-02-20T14:52:47.236Z,3.13
2023-02-20T14:55:19.280Z,3.25
2023-02-20T14:57:50.756Z,3.55
2023-02-20T15:00:34.516Z,3.35
2023-02-20T15:03:20.743Z,3.45
2023-02-20T15:06:02.930Z,3.70
2023-02-20T15:08:34.126Z,3.55
2023-02-20T15:11:10.333Z,3.90
2023-02-20T15:13:42.222Z,3.88
2023-02-20T15:16:18.813Z,3.85
2023-02-20T15:18:50.360Z,3.50
2023-02-20T15:21:35.515Z,4.10
2023-02-20T15:24:27.712Z,4.32
2023-02-20T15:27:12.093Z,4.32
2023-02-20T15:29:41.804Z,4.50
2023-02-20T15:32:20.421Z,4.63
2023-02-20T15:34:53.935Z,4.03
2023-02-20T15:37:34.281Z,4.72
2023-02-20T15:40:21.205Z,4.40
2023-02-20T15:42:51.133Z,4.07
2023-02-20T15:45:20.298Z,4.10
2023-02-20T15:47:49.401Z,4.05
2023-02-20T15:50:18.620Z,3.70
2023-02-20T15:52:49.756Z,3.75
2023-02-20T15:55:21.317Z,3.92
2023-02-20T15:57:51.121Z,3.60
2023-02-20T16:00:22.115Z,3.78
2023-02-20T16:02:51.287Z,3.58
2023-02-20T16:05:20.446Z,4.10
2023-02-20T16:07:51.167Z,3.97
2023-02-20T16:10:23.516Z,3.85
2023-02-20T16:12:54.555Z,3.42
2023-02-20T16:15:26.068Z,3.67
2023-02-20T16:17:55.492Z,3.95
2023-02-20T16:20:27.301Z,3.75
2023-02-20T16:22:58.822Z,4.30
2023-02-20T16:25:28.358Z,4.20
2023-02-20T16:27:58.170Z,4.25
2023-02-20T16:30:33.816Z,4.13
2023-02-20T16:33:04.174Z,4.13
2023-02-20T16:35:33.298Z,3.97
2023-02-20T16:38:04.134Z,3.85
2023-02-20T16:40:33.408Z,3.90
2023-02-20T16:43:02.610Z,4.20
2023-02-20T16:45:32.108Z,3.92
2023-02-20T16:48:01.282Z,3.92
2023-02-20T16:50:32.230Z,3.80
2023-02-20T16:53:07.280Z,4.07
2023-02-20T16:55:37.921Z,4.10
2023-02-20T16:58:07.763Z,4.15
2023-02-20T17:00:51.058Z,3.78
2023-02-20T17:03:25.139Z,4.43
2023-02-20T17:06:00.223Z,4.93
2023-02-20T17:08:31.085Z,5.17
2023-02-20T17:11:00.125Z,5.28
2023-02-20T17:13:29.129Z,5.40
2023-02-20T17:15:58.213Z,4.97
2023-02-20T17:18:27.161Z,5.20
2023-02-20T17:20:56.211Z,4.90
2023-02-20T17:23:25.184Z,5.35
2023-02-20T17:25:55.785Z,5.25
2023-02-20T17:28:24.749Z,5.07
2023-02-20T17:30:55.292Z,5.47
2023-02-20T17:33:26.105Z,5.03
2023-02-20T17:35:55.246Z,4.90
2023-02-20T17:38:25.237Z,4.80
2023-02-20T17:40:59.001Z,4.40
2023-02-20T17:43:28.032Z,4.38
2023-02-20T17:45:56.982Z,4.05
2023-02-20T17:48:26.044Z,4.65
2023-02-20T17:50:55.183Z,4.03
2023-02-20T17:53:24.239Z,4.00
2023-02-20T17:55:55.051Z,3.70
2023-02-20T17:58:24.110Z,3.97
2023-02-20T18:00:53.233Z,4.15
2023-02-20T18:03:22.302Z,4.18
2023-02-20T18:05:51.437Z,4.10
2023-02-20T18:08:20.431Z,4.40
2023-02-20T18:10:49.602Z,3.78
2023-02-20T18:13:20.316Z,3.90
2023-02-20T18:15:49.251Z,4.38
2023-02-20T18:18:19.332Z,4.15
2023-02-20T18:20:48.746Z,4.05
2023-02-20T18:23:17.755Z,4.60
2023-02-20T18:25:46.844Z,4.15
2023-02-20T18:28:15.786Z,4.20
2023-02-20T18:30:46.544Z,4.35
2023-02-20T18:33:16.298Z,4.97
2023-02-20T18:35:47.410Z,5.10
2023-02-20T18:38:19.658Z,5.05
2023-02-20T18:40:48.779Z,5.38
2023-02-20T18:43:17.921Z,5.25
2023-02-20T18:45:48.560Z,5.22
2023-02-20T18:48:17.795Z,4.55
2023-02-20T18:50:46.867Z,4.60
2023-02-20T18:53:16.218Z,4.55
2023-02-20T18:55:45.362Z,4.40
2023-02-20T18:58:14.362Z,4.70
2023-02-20T19:00:43.424Z,4.40
2023-02-20T19:03:14.438Z,4.40
2023-02-20T19:05:43.548Z,4.15
2023-02-20T19:08:12.482Z,3.92
2023-02-20T19:10:41.509Z,3.42
2023-02-20T19:13:10.769Z,3.10
2023-02-20T19:15:39.783Z,3.20
2023-02-20T19:18:08.767Z,2.60
2023-02-20T19:20:39.459Z,2.20
2023-02-20T19:23:08.596Z,2.60
2023-02-20T19:25:39.512Z,2.63
2023-02-20T19:28:08.675Z,2.97
2023-02-20T19:30:37.824Z,2.55
2023-02-20T19:33:06.884Z,2.50
2023-02-20T19:35:35.852Z,2.70
2023-02-20T19:38:06.478Z,2.80
2023-02-20T19:40:35.441Z,2.70
2023-02-20T19:43:04.551Z,2.78
2023-02-20T19:45:33.837Z,2.70
2023-02-20T19:48:02.991Z,2.50
2023-02-20T19:50:32.035Z,2.70
2023-02-20T19:53:01.234Z,2.80
2023-02-20T19:55:35.486Z,2.60
2023-02-20T19:58:04.500Z,2.80
2023-02-20T20:00:33.616Z,2.97
2023-02-20T20:03:02.712Z,3.03
2023-02-20T20:05:31.707Z,2.75
2023-02-20T20:08:01.413Z,2.78
2023-02-20T20:10:32.256Z,3.15
2023-02-20T20:13:01.229Z,3.17
2023-02-20T20:15:30.657Z,3.03
2023-02-20T20:18:01.602Z,2.78
2023-02-20T20:20:33.185Z,3.50
2023-02-20T20:23:06.356Z,3.20
2023-02-20T20:25:37.123Z,3.17
2023-02-20T20:28:08.219Z,3.15
2023-02-20T20:30:40.821Z,2.80
2023-02-20T20:33:10.962Z,2.90
2023-02-20T20:35:40.056Z,2.47
2023-02-20T20:38:09.430Z,2.70
2023-02-20T20:40:40.025Z,3.22
2023-02-20T20:43:08.971Z,3.33
2023-02-20T20:45:37.999Z,3.50
2023-02-20T20:48:07.115Z,3.60
2023-02-20T20:50:36.222Z,3.88
2023-02-20T20:53:05.185Z,4.07
2023-02-20T20:55:34.944Z,4.22
2023-02-20T20:58:06.339Z,4.47
2023-02-20T21:00:36.337Z,4.35
2023-02-20T21:03:06.980Z,4.10
2023-02-20T21:05:36.057Z,3.53
2023-02-20T21:08:07.270Z,4.25
2023-02-20T21:10:37.198Z,4.38
2023-02-20T21:13:07.914Z,4.45
2023-02-20T21:15:37.006Z,4.15
2023-02-20T21:18:06.571Z,4.18
2023-02-20T21:20:36.190Z,3.97
2023-02-20T21:23:05.780Z,3.97
2023-02-20T21:25:34.837Z,3.10
2023-02-20T21:28:03.953Z,3.28
2023-02-20T21:30:34.657Z,3.60
2023-02-20T21:33:03.700Z,3.72
2023-02-20T21:35:32.792Z,3.50
2023-02-20T21:38:01.747Z,3.80
2023-02-20T21:40:30.821Z,3.20
2023-02-20T21:43:18.174Z,3.72
2023-02-20T21:45:50.577Z,3.70
2023-02-20T21:48:19.592Z,3.72
2023-02-20T21:50:48.683Z,2.88
2023-02-20T21:53:17.715Z,3.13
2023-02-20T21:55:47.259Z,3.00
2023-02-20T21:58:16.596Z,3.85
2023-02-20T22:00:47.838Z,3.40
2023-02-20T22:03:16.586Z,3.72
2023-02-20T22:05:45.368Z,3.63
2023-02-20T22:08:32.891Z,3.70
2023-02-20T22:11:20.961Z,3.60
2023-02-20T22:14:08.292Z,3.50
2023-02-20T22:16:57.098Z,3.65
2023-02-20T22:19:44.457Z,3.35
2023-02-20T22:22:31.718Z,3.30
2023-02-20T22:25:19.042Z,3.55
2023-02-20T22:28:06.613Z,3.15
2023-02-20T22:30:54.600Z,3.78
2023-02-20T22:33:43.885Z,3.80
2023-02-20T22:36:31.228Z,3.67
2023-02-20T22:39:18.457Z,3.95
2023-02-20T22:42:05.621Z,3.78
2023-02-20T22:44:53.096Z,3.90
2023-02-20T22:47:40.517Z,3.70
2023-02-20T22:50:29.572Z,3.78
2023-02-20T22:53:16.813Z,3.88
2023-02-20T22:56:04.235Z,4.57
2023-02-20T22:58:51.746Z,4.43
2023-02-20T23:01:38.967Z,5.00
2023-02-20T23:04:26.028Z,4.50
2023-02-20T23:07:14.777Z,4.30
2023-02-20T23:10:02.099Z,4.60
2023-02-20T23:12:49.632Z,3.78
2023-02-20T23:15:36.694Z,3.95
2023-02-20T23:18:24.498Z,2.97
2023-02-20T23:21:11.765Z,3.05
2023-02-20T23:24:00.612Z,3.15
2023-02-20T23:26:48.080Z,3.20
2023-02-20T23:29:35.659Z,3.17
2023-02-20T23:32:24.025Z,3.35
2023-02-20T23:35:11.489Z,3.35
2023-02-20T23:37:58.911Z,3.05
2023-02-20T23:40:47.741Z,3.10
2023-02-20T23:43:34.730Z,2.90
2023-02-20T23:46:22.866Z,3.17
2023-02-20T23:49:10.004Z,3.20
2023-02-20T23:51:59.098Z,2.65
2023-02-20T23:54:48.121Z,2.95
2023-02-20T23:57:37.093Z,2.70
